Time;durP1;ratioP1;P1;durP2;ratioP2;P2;SDS_P1;SDS_P2;PMS_P1;PMS_P2;Temp;Humidity;BMP_temperature;BMP_pressure;BME280_temperature;BME280_humidity;BME280_pressure;Samples;Min_cycle;Max_cycle;Signal;HPM_P1;HPM_P2
2023/12/11 00:02:26;;;;;;;2.85;0.73;;;5.90;99.90;;;;;;5008480;28;20029;-79
2023/12/11 00:04:51;;;;;;;0.85;0.60;;;6.00;99.90;;;;;;5008033;28;20041;-79
2023/12/11 00:07:17;;;;;;;0.75;0.50;;;6.00;99.90;;;;;;5016631;28;20038;-79
2023/12/11 00:09:42;;;;;;;0.50;0.40;;;6.00;99.90;;;;;;5011652;28;20057;-79
2023/12/11 00:12:08;;;;;;;0.98;0.50;;;6.00;99.90;;;;;;5017816;28;20033;-79
2023/12/11 00:14:33;;;;;;;0.60;0.50;;;6.00;99.90;;;;;;5017478;28;20048;-79
2023/12/11 00:16:59;;;;;;;0.85;0.50;;;6.00;99.90;;;;;;5009731;28;20273;-79
2023/12/11 00:19:25;;;;;;;0.63;0.52;;;6.10;99.90;;;;;;5005132;28;20514;-79
2023/12/11 00:21:50;;;;;;;0.65;0.52;;;6.10;99.90;;;;;;5010409;28;20038;-79
2023/12/11 00:24:16;;;;;;;0.40;0.30;;;6.10;99.90;;;;;;5015483;28;20497;-79
2023/12/11 00:26:41;;;;;;;0.47;0.40;;;6.10;99.90;;;;;;5010018;28;20548;-79
2023/12/11 00:29:07;;;;;;;0.52;0.30;;;6.10;99.90;;;;;;5012129;28;20105;-79
2023/12/11 00:31:33;;;;;;;0.40;0.38;;;6.10;99.90;;;;;;5009695;28;20038;-79
2023/12/11 00:33:58;;;;;;;0.32;0.30;;;6.10;99.90;;;;;;5010037;28;20065;-79
2023/12/11 00:36:24;;;;;;;0.55;0.43;;;6.20;99.90;;;;;;5013858;28;20061;-79
2023/12/11 00:38:50;;;;;;;0.40;0.40;;;6.20;99.90;;;;;;5012474;28;20038;-79
2023/12/11 00:41:18;;;;;;;0.20;0.20;;;6.20;99.90;;;;;;5011110;28;20021;-79
2023/12/11 00:43:44;;;;;;;0.57;0.35;;;6.20;99.90;;;;;;5007330;28;20512;-79
2023/12/11 00:46:14;;;;;;;0.85;0.60;;;6.20;99.90;;;;;;5009337;28;20113;-80
2023/12/11 00:48:39;;;;;;;0.65;0.45;;;6.30;99.90;;;;;;5006874;28;20033;-79
2023/12/11 00:51:05;;;;;;;0.57;0.40;;;6.30;99.90;;;;;;5012761;28;20042;-80
2023/12/11 00:53:30;;;;;;;1.00;0.52;;;6.30;99.90;;;;;;5009439;28;20036;-80
2023/12/11 00:55:56;;;;;;;1.15;0.55;;;6.40;99.90;;;;;;5010700;28;20445;-80
2023/12/11 00:58:21;;;;;;;0.45;0.43;;;6.40;99.90;;;;;;5008819;28;20030;-80
2023/12/11 01:00:46;;;;;;;1.65;0.85;;;6.40;99.90;;;;;;5010764;28;20040;-79
2023/12/11 01:03:12;;;;;;;1.02;0.70;;;6.40;99.90;;;;;;5006584;28;20077;-79
2023/12/11 01:05:37;;;;;;;2.03;1.00;;;6.50;99.90;;;;;;5013056;28;20040;-79
2023/12/11 01:08:03;;;;;;;2.88;1.05;;;6.50;99.90;;;;;;5008824;28;20482;-80
2023/12/11 01:10:29;;;;;;;1.70;1.00;;;6.50;99.90;;;;;;5009268;28;20060;-79
2023/12/11 01:12:54;;;;;;;2.20;1.13;;;6.60;99.90;;;;;;5012648;28;20069;-79
2023/12/11 01:15:20;;;;;;;1.23;0.85;;;6.60;99.90;;;;;;5009897;28;20026;-80
2023/12/11 01:17:45;;;;;;;2.88;1.23;;;6.70;99.90;;;;;;5006850;28;20081;-79
2023/12/11 01:20:11;;;;;;;1.58;1.08;;;6.80;99.90;;;;;;5010499;28;20040;-79
2023/12/11 01:22:36;;;;;;;2.92;1.58;;;6.80;99.90;;;;;;5011767;28;20521;-79
2023/12/11 01:25:02;;;;;;;2.53;1.40;;;6.80;99.90;;;;;;5015134;28;20387;-79
2023/12/11 01:27:27;;;;;;;3.40;1.65;;;7.00;99.90;;;;;;5009244;28;20535;-79
2023/12/11 01:29:53;;;;;;;3.88;2.08;;;7.00;99.90;;;;;;5009459;28;20087;-79
2023/12/11 01:32:18;;;;;;;3.85;1.98;;;7.10;99.90;;;;;;5010949;28;20037;-79
2023/12/11 01:34:44;;;;;;;4.05;2.30;;;7.20;99.90;;;;;;5009002;28;20048;-79
2023/12/11 01:37:09;;;;;;;5.25;2.20;;;7.30;99.90;;;;;;5009251;28;20049;-79
2023/12/11 01:39:35;;;;;;;4.80;2.72;;;7.30;99.90;;;;;;5012171;28;20081;-79
2023/12/11 01:42:00;;;;;;;4.25;2.35;;;7.40;99.90;;;;;;5010565;28;20025;-79
2023/12/11 01:44:26;;;;;;;5.28;2.38;;;7.40;99.90;;;;;;5006868;28;20084;-79
2023/12/11 01:46:52;;;;;;;5.80;2.45;;;7.40;99.90;;;;;;5009632;28;20468;-79
2023/12/11 01:49:18;;;;;;;5.80;2.47;;;7.50;99.90;;;;;;5014138;28;20038;-79
2023/12/11 01:51:44;;;;;;;4.07;2.40;;;7.60;99.90;;;;;;5014675;28;20068;-79
2023/12/11 01:54:09;;;;;;;4.55;2.45;;;7.60;99.90;;;;;;4998539;28;20386;-79
2023/12/11 01:56:35;;;;;;;4.15;2.22;;;7.60;99.90;;;;;;5005358;28;20525;-79
2023/12/11 01:59:01;;;;;;;3.80;2.08;;;7.70;99.90;;;;;;5010856;28;20034;-79
2023/12/11 02:01:28;;;;;;;4.13;2.20;;;7.60;99.90;;;;;;5010721;28;20036;-80
2023/12/11 02:03:53;;;;;;;4.05;2.20;;;7.70;99.90;;;;;;5007885;28;20034;-79
2023/12/11 02:06:19;;;;;;;6.13;2.70;;;7.60;99.90;;;;;;5011401;28;20367;-79
2023/12/11 02:08:45;;;;;;;4.10;1.83;;;7.80;99.90;;;;;;5010497;28;20044;-79
2023/12/11 02:11:12;;;;;;;3.85;1.92;;;7.80;99.90;;;;;;5007502;28;20033;-80
2023/12/11 02:13:39;;;;;;;3.58;1.77;;;7.90;99.90;;;;;;5008301;28;20383;-79
2023/12/11 02:16:05;;;;;;;3.25;1.45;;;7.90;99.90;;;;;;5012723;28;20025;-80
2023/12/11 02:18:31;;;;;;;4.32;2.30;;;8.00;99.90;;;;;;5008200;28;20037;-80
2023/12/11 02:20:56;;;;;;;3.33;1.63;;;8.00;99.90;;;;;;4998105;28;20034;-79
2023/12/11 02:23:45;;;;;;;2.50;1.20;;;7.90;99.90;;;;;;5006004;28;20042;-80
2023/12/11 02:26:15;;;;;;;3.22;1.33;;;7.90;99.90;;;;;;5002191;28;20529;-80
2023/12/11 02:28:41;;;;;;;1.88;1.00;;;8.00;99.90;;;;;;5008978;28;20034;-79
2023/12/11 02:31:07;;;;;;;2.08;1.05;;;7.90;99.90;;;;;;5004316;28;20125;-80
2023/12/11 02:33:33;;;;;;;2.13;1.30;;;8.00;99.90;;;;;;5001649;28;20042;-80
2023/12/11 02:35:58;;;;;;;4.15;1.60;;;8.00;99.90;;;;;;5010257;28;20041;-79
2023/12/11 02:38:24;;;;;;;2.17;1.20;;;8.00;99.90;;;;;;5012285;28;20116;-79
2023/12/11 02:40:49;;;;;;;2.95;2.13;;;8.10;99.90;;;;;;5011718;28;20548;-79
2023/12/11 02:43:15;;;;;;;1.27;1.05;;;8.10;99.90;;;;;;5005832;28;20410;-80
2023/12/11 02:45:42;;;;;;;0.98;0.80;;;8.10;99.90;;;;;;5019738;28;20034;-79
2023/12/11 02:48:07;;;;;;;2.83;1.17;;;8.00;99.90;;;;;;5006109;28;20076;-79
2023/12/11 02:50:33;;;;;;;3.88;1.10;;;8.00;99.90;;;;;;5014398;28;20478;-79
2023/12/11 02:52:59;;;;;;;1.92;0.77;;;8.10;99.90;;;;;;5008475;28;20026;-80
2023/12/11 02:55:25;;;;;;;5.22;1.00;;;8.10;99.90;;;;;;5005533;28;20069;-80
2023/12/11 02:57:59;;;;;;;6.43;1.13;;;8.20;99.90;;;;;;5011536;28;20538;-80
2023/12/11 03:00:26;;;;;;;4.32;1.00;;;8.10;99.90;;;;;;5011544;28;20033;-80
2023/12/11 03:02:51;;;;;;;3.13;1.52;;;8.20;99.90;;;;;;5004945;28;20041;-79
2023/12/11 03:05:17;;;;;;;2.17;0.80;;;8.20;99.90;;;;;;5007509;28;20483;-79
2023/12/11 03:07:42;;;;;;;0.98;0.90;;;8.20;99.90;;;;;;5005972;28;20045;-80
2023/12/11 03:10:08;;;;;;;2.28;1.30;;;8.20;99.90;;;;;;5009625;28;20065;-80
2023/12/11 03:12:34;;;;;;;4.78;1.52;;;8.20;99.90;;;;;;5008624;28;20030;-79
2023/12/11 03:15:00;;;;;;;5.50;1.27;;;8.10;99.90;;;;;;5019219;28;20095;-79
2023/12/11 03:17:26;;;;;;;4.63;1.75;;;8.20;99.90;;;;;;5011147;28;20041;-80
2023/12/11 03:19:52;;;;;;;2.63;1.10;;;8.10;99.90;;;;;;5009603;28;20034;-80
2023/12/11 03:22:18;;;;;;;5.53;1.42;;;8.10;99.90;;;;;;5013833;28;20018;-80
2023/12/11 03:24:43;;;;;;;2.90;1.02;;;8.10;99.90;;;;;;5013974;28;20471;-80
2023/12/11 03:27:09;;;;;;;1.90;1.05;;;8.10;99.90;;;;;;5013153;28;20553;-80
2023/12/11 03:29:35;;;;;;;5.90;1.23;;;8.10;99.90;;;;;;5014242;28;20030;-80
2023/12/11 03:32:00;;;;;;;5.15;0.90;;;8.10;99.90;;;;;;5009650;28;20052;-80
2023/12/11 03:34:26;;;;;;;5.90;1.90;;;8.10;99.90;;;;;;5012009;28;20045;-80
2023/12/11 03:36:51;;;;;;;3.30;1.60;;;8.10;99.90;;;;;;5012364;28;20041;-80
2023/12/11 03:39:16;;;;;;;2.10;1.05;;;8.10;99.90;;;;;;5014816;28;20038;-80
2023/12/11 03:41:44;;;;;;;1.83;0.88;;;8.10;99.90;;;;;;5013484;28;20390;-80
2023/12/11 03:44:09;;;;;;;2.03;1.00;;;8.10;99.90;;;;;;5012596;28;20137;-80
2023/12/11 03:46:34;;;;;;;4.40;1.02;;;8.10;99.90;;;;;;5003687;28;20189;-80
2023/12/11 03:49:00;;;;;;;2.53;0.88;;;8.10;99.90;;;;;;5013203;28;20049;-80
2023/12/11 03:51:25;;;;;;;2.22;0.82;;;8.10;99.90;;;;;;5011568;28;20073;-80
2023/12/11 03:53:51;;;;;;;6.72;1.48;;;8.10;99.90;;;;;;5012334;28;20040;-80
2023/12/11 03:56:16;;;;;;;4.10;1.20;;;8.00;99.90;;;;;;5009746;28;20492;-80
2023/12/11 03:58:42;;;;;;;2.75;1.30;;;8.00;99.90;;;;;;5012952;28;20049;-80
2023/12/11 04:01:07;;;;;;;3.13;1.20;;;8.00;99.90;;;;;;5007737;28;20027;-81
2023/12/11 04:03:33;;;;;;;1.30;0.77;;;8.00;99.90;;;;;;5005114;28;20053;-80
2023/12/11 04:05:58;;;;;;;4.75;1.10;;;8.00;99.90;;;;;;5016659;28;20034;-80
2023/12/11 04:08:24;;;;;;;3.88;1.58;;;8.00;99.90;;;;;;5012487;28;20363;-80
2023/12/11 04:10:49;;;;;;;2.55;0.90;;;7.90;99.90;;;;;;5013484;28;20069;-80
2023/12/11 04:13:15;;;;;;;2.10;1.20;;;7.90;99.90;;;;;;5013593;28;20033;-80
2023/12/11 04:15:40;;;;;;;2.85;1.40;;;7.90;99.90;;;;;;5012812;28;20026;-80
2023/12/11 04:18:06;;;;;;;2.40;1.33;;;7.80;99.90;;;;;;5003685;28;20518;-80
2023/12/11 04:20:31;;;;;;;3.58;1.48;;;7.90;99.90;;;;;;5008974;28;20386;-80
2023/12/11 04:22:57;;;;;;;3.67;1.38;;;7.90;99.90;;;;;;5011962;28;20080;-80
2023/12/11 04:25:22;;;;;;;3.50;1.33;;;7.90;99.90;;;;;;5012498;28;20088;-81
2023/12/11 04:27:48;;;;;;;3.03;1.30;;;7.90;99.90;;;;;;5010355;28;20109;-80
2023/12/11 04:30:14;;;;;;;3.15;1.27;;;7.90;99.90;;;;;;5013212;28;20034;-80
2023/12/11 04:32:39;;;;;;;9.00;1.88;;;7.80;99.90;;;;;;5007879;28;20033;-81
2023/12/11 04:35:05;;;;;;;5.30;1.17;;;7.90;99.90;;;;;;5010731;28;20038;-80
2023/12/11 04:37:30;;;;;;;3.20;1.33;;;7.80;99.90;;;;;;5011820;28;20044;-80
2023/12/11 04:39:56;;;;;;;2.60;1.38;;;7.80;99.90;;;;;;5012823;28;20038;-80
2023/12/11 04:42:21;;;;;;;5.00;2.50;;;7.80;99.90;;;;;;5012009;28;20033;-80
2023/12/11 04:44:47;;;;;;;3.72;1.50;;;7.80;99.90;;;;;;5016164;28;20033;-80
2023/12/11 04:47:12;;;;;;;3.85;1.40;;;7.80;99.90;;;;;;5007499;28;20036;-80
2023/12/11 04:49:37;;;;;;;3.28;1.30;;;7.70;99.90;;;;;;5008731;28;20036;-80
2023/12/11 04:52:03;;;;;;;3.20;1.85;;;7.70;99.90;;;;;;5014397;28;20474;-80
2023/12/11 04:54:29;;;;;;;8.65;2.17;;;7.80;99.90;;;;;;5011965;28;20065;-80
2023/12/11 04:56:54;;;;;;;4.78;1.73;;;7.80;99.90;;;;;;5010306;28;20088;-80
2023/12/11 04:59:20;;;;;;;6.25;1.65;;;7.80;99.90;;;;;;5010023;28;20084;-80
2023/12/11 05:01:45;;;;;;;3.40;1.42;;;7.80;99.90;;;;;;5010461;28;20030;-79
2023/12/11 05:04:11;;;;;;;3.05;1.23;;;7.80;99.90;;;;;;5008258;28;20042;-80
2023/12/11 05:06:36;;;;;;;1.67;0.98;;;7.80;99.90;;;;;;5010437;28;20049;-79
2023/12/11 05:09:02;;;;;;;1.30;0.98;;;7.80;99.90;;;;;;5015020;28;20044;-79
2023/12/11 05:11:27;;;;;;;2.67;1.35;;;7.90;99.90;;;;;;5009205;28;20038;-79
2023/12/11 05:13:53;;;;;;;2.40;1.20;;;7.90;99.90;;;;;;5009520;28;20181;-80
2023/12/11 05:16:18;;;;;;;5.63;1.98;;;7.90;99.90;;;;;;5011696;28;20443;-79
2023/12/11 05:18:43;;;;;;;6.18;1.48;;;7.90;99.90;;;;;;5005575;28;20030;-80
2023/12/11 05:21:09;;;;;;;4.40;2.10;;;7.90;99.90;;;;;;5012053;28;20061;-81
2023/12/11 05:23:35;;;;;;;5.60;1.17;;;7.90;99.90;;;;;;5010153;28;20403;-80
2023/12/11 05:26:01;;;;;;;9.30;2.33;;;7.90;99.90;;;;;;5012149;28;20111;-76
2023/12/11 05:28:26;;;;;;;3.38;1.25;;;7.90;99.90;;;;;;5008830;28;20146;-72
2023/12/11 05:30:52;;;;;;;2.63;1.42;;;7.90;99.90;;;;;;5012228;28;20076;-74
2023/12/11 05:33:17;;;;;;;3.55;1.48;;;7.90;99.90;;;;;;5007248;28;20065;-74
2023/12/11 05:35:43;;;;;;;3.33;1.95;;;7.90;99.90;;;;;;5009197;28;20026;-73
2023/12/11 05:38:09;;;;;;;2.00;1.23;;;7.90;99.90;;;;;;5009229;28;20132;-72
2023/12/11 05:40:34;;;;;;;4.63;1.50;;;7.90;99.90;;;;;;5011056;28;20112;-72
2023/12/11 05:42:59;;;;;;;3.97;1.05;;;7.90;99.90;;;;;;5009281;28;20124;-73
2023/12/11 05:45:26;;;;;;;6.60;1.38;;;7.90;99.90;;;;;;5008961;28;20049;-73
2023/12/11 05:47:51;;;;;;;3.90;1.35;;;7.90;99.90;;;;;;5007029;28;20034;-73
2023/12/11 05:50:17;;;;;;;7.03;2.30;;;7.90;99.90;;;;;;5004886;28;20386;-73
2023/12/11 05:52:42;;;;;;;3.70;1.45;;;8.00;99.90;;;;;;5003664;28;20121;-75
2023/12/11 05:55:08;;;;;;;5.95;1.70;;;8.00;99.90;;;;;;5007081;28;20081;-73
2023/12/11 05:57:33;;;;;;;1.73;0.93;;;7.90;99.90;;;;;;5006639;28;20049;-72
2023/12/11 05:59:59;;;;;;;3.35;1.63;;;8.00;99.90;;;;;;5011137;28;20474;-73
2023/12/11 06:02:25;;;;;;;3.83;1.48;;;7.90;99.90;;;;;;5011240;28;20356;-75
2023/12/11 06:04:51;;;;;;;5.90;2.13;;;7.80;99.90;;;;;;5010256;28;20041;-72
2023/12/11 06:07:17;;;;;;;2.50;1.50;;;7.80;99.90;;;;;;5009400;28;20026;-71
2023/12/11 06:09:42;;;;;;;1.52;0.98;;;7.80;99.90;;;;;;5009181;28;20053;-72
2023/12/11 06:12:09;;;;;;;4.90;1.65;;;7.80;99.90;;;;;;5011199;28;20151;-72
2023/12/11 06:14:38;;;;;;;4.03;1.50;;;7.80;99.90;;;;;;5002855;28;20026;-72
2023/12/11 06:17:03;;;;;;;3.85;1.70;;;7.80;99.90;;;;;;5009068;28;20032;-73
2023/12/11 06:19:29;;;;;;;3.05;1.40;;;7.80;99.90;;;;;;5006828;28;20033;-73
2023/12/11 06:21:54;;;;;;;1.95;1.20;;;7.80;99.90;;;;;;5010538;28;20026;-72
2023/12/11 06:24:20;;;;;;;1.85;0.93;;;7.80;99.90;;;;;;5008459;28;20041;-73
2023/12/11 06:26:45;;;;;;;2.75;1.35;;;7.80;99.90;;;;;;5010463;28;20112;-73
2023/12/11 06:29:11;;;;;;;4.00;1.30;;;7.80;99.90;;;;;;5006670;28;20386;-72
2023/12/11 06:31:36;;;;;;;1.42;0.90;;;7.90;99.90;;;;;;5009070;28;20036;-73
2023/12/11 06:34:03;;;;;;;3.45;1.65;;;7.80;99.90;;;;;;5007708;28;20109;-73
2023/12/11 06:36:28;;;;;;;3.50;0.98;;;7.80;99.90;;;;;;5010629;28;20475;-75
2023/12/11 06:38:54;;;;;;;3.40;1.27;;;7.80;99.90;;;;;;5010534;28;20113;-72
2023/12/11 06:41:20;;;;;;;3.63;1.35;;;7.90;99.90;;;;;;5007822;28;20084;-72
2023/12/11 06:43:52;;;;;;;3.47;1.42;;;7.90;99.90;;;;;;5005950;28;20409;-71
2023/12/11 06:46:18;;;;;;;4.80;1.83;;;7.80;99.90;;;;;;5000976;28;20072;-72
2023/12/11 06:48:43;;;;;;;2.88;1.17;;;7.90;99.90;;;;;;5006256;28;20046;-76
2023/12/11 06:51:09;;;;;;;4.25;1.80;;;7.90;99.90;;;;;;5007198;28;20390;-72
2023/12/11 06:53:34;;;;;;;2.20;0.93;;;7.80;99.90;;;;;;5007081;28;20042;-73
2023/12/11 06:56:00;;;;;;;3.47;1.67;;;7.80;99.90;;;;;;5010004;28;20390;-72
2023/12/11 06:58:25;;;;;;;1.55;0.95;;;7.90;99.90;;;;;;5006132;28;20034;-75
2023/12/11 07:00:51;;;;;;;1.58;0.88;;;7.90;99.90;;;;;;5008126;28;20482;-73
2023/12/11 07:03:17;;;;;;;3.45;1.45;;;7.80;99.90;;;;;;5005008;28;20121;-73
2023/12/11 07:05:43;;;;;;;2.35;1.08;;;7.80;99.90;;;;;;5008806;28;20116;-74
2023/12/11 07:08:09;;;;;;;2.08;1.00;;;7.90;99.90;;;;;;5006359;28;20501;-72
2023/12/11 07:10:34;;;;;;;2.88;1.30;;;7.80;99.90;;;;;;5006046;28;20054;-73
2023/12/11 07:13:00;;;;;;;3.25;1.30;;;7.90;99.90;;;;;;5011582;28;20105;-72
2023/12/11 07:15:25;;;;;;;4.10;1.63;;;7.80;99.90;;;;;;5007996;28;20128;-73
2023/12/11 07:17:51;;;;;;;2.78;1.25;;;7.80;99.90;;;;;;5005494;28;20037;-73
2023/12/11 07:20:16;;;;;;;3.22;1.55;;;7.80;99.90;;;;;;5008102;28;20487;-73
2023/12/11 07:22:42;;;;;;;3.75;2.20;;;7.80;99.90;;;;;;5007387;28;20041;-72
2023/12/11 07:25:07;;;;;;;4.25;1.27;;;7.80;99.90;;;;;;5007861;28;20180;-73
2023/12/11 07:27:34;;;;;;;2.50;1.00;;;7.80;99.90;;;;;;5005737;28;20044;-73
2023/12/11 07:29:59;;;;;;;4.10;1.45;;;7.80;99.90;;;;;;5004840;28;20033;-72
2023/12/11 07:32:25;;;;;;;3.67;1.55;;;7.80;99.90;;;;;;5008168;28;20029;-74
2023/12/11 07:34:50;;;;;;;4.57;2.88;;;7.80;99.90;;;;;;5008385;28;20463;-72
2023/12/11 07:37:16;;;;;;;3.53;1.40;;;7.80;99.90;;;;;;5008214;28;20482;-74
2023/12/11 07:39:41;;;;;;;3.53;1.45;;;7.80;99.90;;;;;;5010031;28;20045;-71
2023/12/11 07:42:07;;;;;;;6.00;1.85;;;7.80;99.90;;;;;;5009861;28;20072;-73
2023/12/11 07:44:32;;;;;;;3.33;1.55;;;7.80;99.90;;;;;;5007049;28;20398;-72
2023/12/11 07:46:59;;;;;;;2.38;1.38;;;7.90;99.90;;;;;;5007491;28;20092;-72
2023/12/11 07:49:25;;;;;;;2.72;1.45;;;7.80;99.90;;;;;;5006492;28;20123;-71
2023/12/11 07:51:52;;;;;;;3.83;1.50;;;7.80;99.90;;;;;;5010390;28;20058;-71
2023/12/11 07:54:17;;;;;;;4.18;1.25;;;7.90;99.90;;;;;;5009927;28;20026;-71
2023/12/11 07:56:43;;;;;;;3.13;1.35;;;7.80;99.90;;;;;;5008974;28;20092;-72
2023/12/11 07:59:10;;;;;;;4.05;1.33;;;7.80;99.90;;;;;;5011582;28;20209;-72
2023/12/11 08:01:35;;;;;;;3.33;1.40;;;7.90;99.90;;;;;;5005297;28;20080;-72
2023/12/11 08:04:01;;;;;;;4.60;1.77;;;7.90;99.90;;;;;;5011808;28;20041;-73
2023/12/11 08:06:26;;;;;;;5.00;1.77;;;7.90;99.90;;;;;;5009278;28;20083;-72
2023/12/11 08:08:52;;;;;;;5.18;1.58;;;7.90;99.90;;;;;;5007789;28;20383;-72
2023/12/11 08:11:22;;;;;;;4.28;1.95;;;7.90;99.90;;;;;;5008081;28;20421;-73
2023/12/11 08:13:48;;;;;;;2.97;1.20;;;7.90;99.90;;;;;;5011453;28;20629;-74
2023/12/11 08:16:14;;;;;;;4.25;1.58;;;7.90;99.90;;;;;;5003838;28;20368;-74
2023/12/11 08:18:41;;;;;;;3.60;1.83;;;7.90;99.90;;;;;;5005828;28;20029;-73
2023/12/11 08:21:06;;;;;;;3.92;1.42;;;7.90;99.90;;;;;;5012433;28;20033;-73
2023/12/11 08:23:32;;;;;;;5.35;1.45;;;7.90;99.90;;;;;;5009297;28;20045;-74
2023/12/11 08:25:58;;;;;;;3.38;1.70;;;8.00;99.90;;;;;;5010641;28;20382;-73
2023/12/11 08:28:23;;;;;;;3.67;1.05;;;8.00;99.90;;;;;;5006686;28;20033;-73
2023/12/11 08:30:48;;;;;;;2.05;1.50;;;8.00;99.90;;;;;;5010783;28;20049;-72
2023/12/11 08:33:14;;;;;;;3.72;1.27;;;8.00;99.90;;;;;;5008662;28;20052;-77
2023/12/11 08:35:39;;;;;;;6.07;1.90;;;8.00;99.90;;;;;;5005511;28;20736;-74
2023/12/11 08:38:05;;;;;;;2.88;1.38;;;8.00;99.90;;;;;;5011275;28;20160;-75
2023/12/11 08:40:31;;;;;;;2.83;1.35;;;8.10;99.90;;;;;;5012678;28;20061;-76
2023/12/11 08:42:57;;;;;;;5.82;1.85;;;8.10;99.90;;;;;;5004330;28;20537;-77
2023/12/11 08:45:23;;;;;;;3.80;1.45;;;8.10;99.90;;;;;;5011521;28;20453;-75
2023/12/11 08:47:48;;;;;;;8.63;1.20;;;8.10;99.90;;;;;;5004331;28;20569;-74
2023/12/11 08:50:14;;;;;;;4.00;1.90;;;8.10;99.90;;;;;;5006141;28;20041;-72
2023/12/11 08:52:42;;;;;;;1.55;1.00;;;8.20;99.90;;;;;;5010387;28;20474;-72
2023/12/11 08:55:08;;;;;;;3.05;1.55;;;8.20;99.90;;;;;;5014963;28;20029;-72
2023/12/11 08:57:34;;;;;;;3.85;1.42;;;8.20;99.90;;;;;;5006664;28;20034;-72
2023/12/11 08:59:59;;;;;;;3.42;1.48;;;8.20;99.90;;;;;;5009812;28;20034;-73
2023/12/11 09:02:25;;;;;;;6.07;1.90;;;8.20;99.90;;;;;;5004632;28;20029;-73
2023/12/11 09:04:50;;;;;;;4.40;1.30;;;8.20;99.90;;;;;;5007592;28;20491;-73
2023/12/11 09:07:16;;;;;;;4.45;1.23;;;8.20;99.90;;;;;;5011814;28;20033;-73
2023/12/11 09:09:41;;;;;;;5.97;2.25;;;8.30;99.90;;;;;;5006422;28;20038;-73
2023/12/11 09:12:07;;;;;;;9.60;3.05;;;8.30;99.90;;;;;;5012323;28;20026;-72
2023/12/11 09:14:33;;;;;;;9.57;3.15;;;8.30;99.90;;;;;;5011465;28;20037;-74
2023/12/11 09:16:59;;;;;;;7.80;2.80;;;8.30;99.90;;;;;;5010268;28;20459;-72
2023/12/11 09:19:24;;;;;;;13.00;4.82;;;8.30;99.90;;;;;;5007607;28;20040;-73
2023/12/11 09:21:50;;;;;;;5.13;1.92;;;8.30;99.90;;;;;;5011748;28;20018;-72
2023/12/11 09:24:15;;;;;;;3.78;1.10;;;8.30;99.90;;;;;;5007693;28;20065;-73
2023/12/11 09:26:41;;;;;;;5.57;1.85;;;8.30;99.90;;;;;;5011324;28;20022;-72
2023/12/11 09:29:06;;;;;;;7.30;2.13;;;8.40;99.90;;;;;;5013189;28;20038;-72
2023/12/11 09:31:32;;;;;;;7.38;2.92;;;8.40;99.90;;;;;;5006006;28;20045;-72
2023/12/11 09:33:57;;;;;;;7.68;3.60;;;8.30;99.90;;;;;;5006490;28;20030;-73
2023/12/11 09:36:23;;;;;;;3.70;1.52;;;8.30;99.90;;;;;;5015626;28;20021;-72
2023/12/11 09:38:48;;;;;;;7.00;3.00;;;8.30;99.90;;;;;;5011704;28;20504;-73
2023/12/11 09:41:14;;;;;;;7.25;2.15;;;8.30;99.90;;;;;;5011155;28;20030;-73
2023/12/11 09:43:39;;;;;;;2.17;0.85;;;8.30;99.90;;;;;;5018436;28;20470;-73
2023/12/11 09:46:08;;;;;;;3.80;1.20;;;8.30;99.90;;;;;;5011720;28;20034;-73
2023/12/11 09:48:34;;;;;;;1.23;0.80;;;8.30;99.90;;;;;;5004801;28;20034;-72
2023/12/11 09:51:01;;;;;;;1.85;1.20;;;8.30;99.90;;;;;;5011048;28;20389;-73
2023/12/11 09:53:30;;;;;;;3.10;0.98;;;8.40;99.90;;;;;;5008369;28;20112;-73
2023/12/11 09:55:57;;;;;;;1.90;0.88;;;8.40;99.90;;;;;;5005137;28;20037;-71
2023/12/11 09:58:22;;;;;;;1.67;0.80;;;8.40;99.90;;;;;;5009497;28;20042;-72
2023/12/11 10:00:48;;;;;;;1.38;1.05;;;8.40;99.90;;;;;;5004887;28;20410;-72
2023/12/11 10:03:15;;;;;;;2.25;1.05;;;8.40;99.90;;;;;;5007372;28;20451;-72
2023/12/11 10:05:41;;;;;;;4.97;0.93;;;8.50;99.90;;;;;;5008004;28;20053;-73
2023/12/11 10:08:06;;;;;;;11.70;3.08;;;8.50;99.90;;;;;;5009078;28;20517;-72
2023/12/11 10:10:33;;;;;;;10.35;3.47;;;8.60;99.90;;;;;;5006928;28;20141;-72
2023/12/11 10:13:00;;;;;;;5.53;1.60;;;8.70;99.90;;;;;;5011717;28;20022;-72
2023/12/11 10:15:31;;;;;;;7.65;2.53;;;8.70;99.90;;;;;;5011912;28;20030;-71
2023/12/11 10:18:02;;;;;;;;;;;8.60;99.90;;;;;;5009129;28;20084;-72
2023/12/11 10:20:27;;;;;;;2.78;0.85;;;8.60;99.90;;;;;;5012571;28;20270;-71
2023/12/11 10:22:53;;;;;;;3.95;1.38;;;8.50;99.90;;;;;;5010587;28;20037;-73
2023/12/11 10:25:29;;;;;;;3.83;1.65;;;8.50;99.90;;;;;;5007696;28;20037;-72
2023/12/11 10:28:05;;;;;;;1.98;0.88;;;8.50;99.90;;;;;;5007038;28;20077;-72
2023/12/11 10:30:31;;;;;;;1.02;0.75;;;8.50;99.90;;;;;;5015126;28;20459;-73
2023/12/11 10:33:02;;;;;;;3.65;1.05;;;8.50;99.90;;;;;;5006700;28;20038;-73
2023/12/11 10:35:28;;;;;;;2.50;0.75;;;8.50;99.90;;;;;;5011226;28;20033;-72
2023/12/11 10:38:01;;;;;;;1.80;0.93;;;8.60;99.90;;;;;;5015553;28;20033;-74
2023/12/11 10:40:40;;;;;;;2.70;1.40;;;8.70;99.90;;;;;;5007205;28;20036;-71
2023/12/11 10:43:06;;;;;;;1.02;0.65;;;8.90;99.90;;;;;;5010231;28;20410;-71
2023/12/11 10:45:32;;;;;;;3.28;0.95;;;8.90;99.90;;;;;;5003568;28;20025;-71
2023/12/11 10:47:59;;;;;;;2.85;0.80;;;9.00;99.90;;;;;;5017548;28;20030;-71
2023/12/11 10:50:25;;;;;;;3.20;0.90;;;9.00;99.90;;;;;;5011210;28;20057;-73
2023/12/11 10:52:50;;;;;;;2.35;1.10;;;8.90;99.90;;;;;;4991756;28;20065;-71
2023/12/11 10:55:16;;;;;;;1.38;0.75;;;8.90;99.90;;;;;;5008720;28;20436;-71
2023/12/11 10:57:43;;;;;;;2.65;1.23;;;8.90;99.90;;;;;;5005732;28;20068;-71
2023/12/11 11:00:13;;;;;;;5.82;2.30;;;8.90;99.90;;;;;;5005424;28;20033;-71
2023/12/11 11:02:41;;;;;;;4.72;1.65;;;8.80;99.90;;;;;;4996296;28;20460;-74
2023/12/11 11:05:07;;;;;;;4.97;1.02;;;8.80;99.90;;;;;;5004660;28;20052;-72
2023/12/11 11:07:39;;;;;;;1.98;0.70;;;8.80;99.90;;;;;;5009884;28;20402;-73
2023/12/11 11:10:19;;;;;;;1.48;0.98;;;8.80;99.90;;;;;;5009938;28;20033;-71
2023/12/11 11:12:55;;;;;;;0.98;0.50;;;8.80;99.90;;;;;;5010073;28;20504;-72
2023/12/11 11:15:23;;;;;;;1.05;0.60;;;8.80;99.90;;;;;;5011311;28;20120;-73
2023/12/11 11:18:02;;;;;;;1.25;0.60;;;8.80;99.90;;;;;;5007387;28;20529;-73
2023/12/11 11:20:29;;;;;;;2.88;1.10;;;8.80;99.90;;;;;;5006498;28;20077;-72
2023/12/11 11:23:14;;;;;;;2.00;1.00;;;8.80;99.90;;;;;;5005934;28;20482;-72
2023/12/11 11:25:40;;;;;;;5.88;1.05;;;8.70;99.90;;;;;;5000845;28;20402;-72
2023/12/11 11:28:06;;;;;;;2.78;1.45;;;8.70;99.90;;;;;;5010794;28;20084;-72
2023/12/11 11:30:44;;;;;;;4.13;1.92;;;8.70;99.90;;;;;;5010252;28;20382;-72
2023/12/11 11:33:09;;;;;;;3.60;1.65;;;8.70;99.90;;;;;;5013076;28;20038;-72
2023/12/11 11:35:52;;;;;;;1.35;1.00;;;8.70;99.90;;;;;;5015516;28;20034;-72
2023/12/11 11:38:41;;;;;;;1.48;0.82;;;8.70;99.90;;;;;;5009376;28;20041;-72
2023/12/11 11:41:20;;;;;;;2.03;1.05;;;8.70;99.90;;;;;;5013800;28;20037;-72
2023/12/11 11:43:55;;;;;;;1.13;0.47;;;8.70;99.90;;;;;;5013871;28;20121;-72
2023/12/11 11:46:20;;;;;;;3.35;0.68;;;8.70;99.90;;;;;;5008286;28;20339;-73
2023/12/11 11:48:46;;;;;;;2.50;1.00;;;8.70;99.90;;;;;;5011171;28;20044;-72
2023/12/11 11:51:12;;;;;;;1.90;0.88;;;8.80;99.90;;;;;;5008155;28;20061;-73
2023/12/11 11:53:39;;;;;;;3.25;1.50;;;8.80;99.90;;;;;;5010661;28;20029;-72
2023/12/11 11:56:05;;;;;;;2.47;1.00;;;8.80;99.90;;;;;;5008781;28;20501;-73
2023/12/11 11:58:31;;;;;;;3.75;1.15;;;8.80;99.90;;;;;;5012637;28;20034;-71
2023/12/11 12:01:04;;;;;;;3.00;1.35;;;8.80;99.90;;;;;;5013762;28;20529;-71
2023/12/11 12:03:42;;;;;;;2.45;0.63;;;8.80;99.90;;;;;;5012320;28;20046;-72
2023/12/11 12:06:08;;;;;;;1.65;0.77;;;8.80;99.90;;;;;;5010627;28;20021;-72
2023/12/11 12:08:36;;;;;;;1.85;0.80;;;8.80;99.90;;;;;;5012289;28;20030;-77
2023/12/11 12:11:03;;;;;;;1.00;0.57;;;8.80;99.90;;;;;;5007404;28;20035;-76
2023/12/11 12:13:33;;;;;;;1.48;0.93;;;8.80;99.90;;;;;;5007651;28;20025;-77
2023/12/11 12:15:58;;;;;;;0.80;0.52;;;8.80;99.90;;;;;;5011192;28;20042;-72
2023/12/11 12:18:24;;;;;;;3.70;0.90;;;8.80;99.90;;;;;;5010626;28;20045;-73
2023/12/11 12:21:02;;;;;;;1.42;0.80;;;8.70;99.90;;;;;;5011686;28;20026;-69
2023/12/11 12:23:27;;;;;;;2.28;0.90;;;8.70;99.90;;;;;;5008817;28;20120;-70
2023/12/11 12:25:57;;;;;;;2.95;0.73;;;8.70;99.90;;;;;;5007814;28;20117;-70
2023/12/11 12:28:23;;;;;;;0.90;0.60;;;8.70;99.90;;;;;;5008727;28;20379;-70
2023/12/11 12:30:49;;;;;;;2.13;0.95;;;8.80;99.90;;;;;;5009466;28;20035;-69
2023/12/11 12:33:16;;;;;;;4.00;0.80;;;8.80;99.90;;;;;;5004227;28;20410;-72
2023/12/11 12:35:45;;;;;;;1.42;0.65;;;8.70;99.90;;;;;;5010959;28;20105;-72
2023/12/11 12:38:11;;;;;;;2.13;0.77;;;8.70;99.90;;;;;;5003989;28;20026;-71
2023/12/11 12:40:37;;;;;;;1.60;0.65;;;8.70;99.90;;;;;;5009278;28;20084;-70
2023/12/11 12:43:11;;;;;;;4.05;0.85;;;8.80;99.90;;;;;;5013959;28;20050;-73
2023/12/11 12:45:36;;;;;;;2.92;0.85;;;8.80;99.90;;;;;;5005866;28;20045;-72
2023/12/11 12:48:02;;;;;;;1.30;0.80;;;8.80;99.90;;;;;;5008993;28;20514;-74
2023/12/11 12:50:28;;;;;;;1.52;0.68;;;8.80;99.90;;;;;;5012945;28;20095;-76
2023/12/11 12:53:07;;;;;;;3.63;1.00;;;8.80;99.90;;;;;;5020811;28;20029;-76
2023/12/11 12:55:34;;;;;;;2.10;0.90;;;8.70;99.90;;;;;;5007851;28;20467;-77